Time;durP1;ratioP1;P1;durP2;ratioP2;P2;SDS_P1;SDS_P2;PMS_P1;PMS_P2;Temp;Humidity;BMP_temperature;BMP_pressure;BME280_temperature;BME280_humidity;BME280_pressure;Samples;Min_cycle;Max_cycle;Signal;HPM_P1;HPM_P2
2021/01/25 00:01:38;;;;;;;38.25;16.30;;;;;;;0.10;90.59;99493.81;5032037;28;20438;-69
2021/01/25 00:04:04;;;;;;;34.75;15.80;;;;;;;0.11;90.51;99492.84;5030591;28;20037;-69
2021/01/25 00:06:29;;;;;;;37.22;16.30;;;;;;;0.03;90.74;99494.44;5031618;28;20057;-69
2021/01/25 00:08:54;;;;;;;38.93;17.07;;;;;;;0.02;90.86;99488.34;5030985;28;20045;-69
2021/01/25 00:11:20;;;;;;;39.57;15.87;;;;;;;0.04;91.00;99489.06;5031976;28;20052;-69
2021/01/25 00:13:45;;;;;;;46.40;16.60;;;;;;;0.05;90.85;99490.75;5030920;28;20041;-69
2021/01/25 00:16:10;;;;;;;41.83;15.90;;;;;;;-0.01;91.12;99492.06;5031625;28;20033;-69
2021/01/25 00:18:36;;;;;;;37.60;16.07;;;;;;;0.08;91.19;99494.91;5014150;28;20107;-70
2021/01/25 00:21:01;;;;;;;34.13;15.57;;;;;;;0.14;91.06;99491.75;5014384;28;20443;-70
2021/01/25 00:23:26;;;;;;;40.20;15.73;;;;;;;0.19;90.90;99497.47;5030784;28;20044;-67
2021/01/25 00:25:51;;;;;;;43.73;16.30;;;;;;;0.19;90.98;99497.47;5014025;28;20489;-67
2021/01/25 00:28:17;;;;;;;37.07;15.63;;;;;;;0.23;91.12;99503.28;5030473;28;20394;-67
2021/01/25 00:30:42;;;;;;;39.97;16.87;;;;;;;0.24;90.99;99500.56;5030704;28;20041;-67
2021/01/25 00:33:07;;;;;;;48.97;17.00;;;;;;;0.18;90.96;99493.16;5031481;28;20039;-67
2021/01/25 00:35:33;;;;;;;40.37;16.17;;;;;;;0.16;91.05;99495.09;5030431;28;20040;-67
2021/01/25 00:37:58;;;;;;;46.97;17.40;;;;;;;0.09;91.08;99486.06;5030517;28;20037;-67
2021/01/25 00:40:23;;;;;;;47.53;16.40;;;;;;;0.10;91.50;99496.44;5013957;28;20041;-67
2021/01/25 00:42:49;;;;;;;44.87;15.53;;;;;;;0.13;91.58;99488.28;5031404;28;20063;-67
2021/01/25 00:45:16;;;;;;;51.23;17.87;;;;;;;0.12;91.38;99489.28;5030651;28;20338;-67
2021/01/25 00:47:41;;;;;;;57.72;17.65;;;;;;;0.11;91.13;99487.59;5013432;28;20538;-67
2021/01/25 00:50:07;;;;;;;47.90;16.97;;;;;;;0.16;91.60;99500.34;5030284;28;20116;-67
2021/01/25 00:52:33;;;;;;;50.35;17.30;;;;;;;0.16;91.76;99500.34;5031303;28;20069;-67
2021/01/25 00:54:59;;;;;;;59.27;17.30;;;;;;;0.12;91.75;99501.56;5030326;28;20057;-67
2021/01/25 00:57:25;;;;;;;49.92;16.65;;;;;;;0.13;91.81;99506.66;5030039;28;20025;-67
2021/01/25 00:59:50;;;;;;;56.00;18.48;;;;;;;0.05;92.13;99510.88;5031297;28;20633;-67
2021/01/25 01:02:15;;;;;;;49.07;17.10;;;;;;;0.09;91.96;99504.41;5030155;28;20037;-67
2021/01/25 01:04:41;;;;;;;48.57;18.43;;;;;;;0.06;92.23;99507.31;5030186;28;20048;-67
2021/01/25 01:07:06;;;;;;;45.33;15.53;;;;;;;0.14;92.29;99508.34;5029874;28;20041;-70
2021/01/25 01:09:31;;;;;;;43.53;16.03;;;;;;;0.18;92.12;99508.91;5030101;28;20049;-69
2021/01/25 01:11:56;;;;;;;54.10;16.37;;;;;;;0.19;92.16;99502.72;5031121;28;20049;-67
2021/01/25 01:14:23;;;;;;;49.97;16.47;;;;;;;0.15;91.83;99511.81;5030131;28;20041;-67
2021/01/25 01:16:48;;;;;;;51.35;15.52;;;;;;;0.11;92.01;99510.38;5033263;28;20045;-67
2021/01/25 01:19:14;;;;;;;40.17;15.33;;;;;;;0.15;92.16;99511.81;5034119;28;20025;-67
2021/01/25 01:21:39;;;;;;;50.10;17.33;;;;;;;0.15;92.09;99509.19;5034093;28;20478;-67
2021/01/25 01:24:05;;;;;;;36.57;13.30;;;;;;;0.15;91.95;99509.19;5034091;28;20171;-67
2021/01/25 01:26:31;;;;;;;41.42;13.98;;;;;;;0.16;92.06;99516.09;5034471;28;20079;-67
2021/01/25 01:28:56;;;;;;;35.80;14.00;;;;;;;0.21;91.95;99513.91;5033984;28;20087;-67
2021/01/25 01:31:21;;;;;;;41.63;14.47;;;;;;;0.22;92.06;99506.88;5033837;28;20040;-67
2021/01/25 01:33:47;;;;;;;40.33;13.00;;;;;;;0.23;92.03;99508.53;5017436;28;20090;-67
2021/01/25 01:36:12;;;;;;;36.57;13.17;;;;;;;0.25;91.88;99509.25;5034575;28;20033;-67
2021/01/25 01:38:38;;;;;;;37.37;13.87;;;;;;;0.27;91.97;99518.66;5017363;28;20072;-68
2021/01/25 01:41:04;;;;;;;38.55;14.25;;;;;;;0.29;91.88;99514.13;5034619;28;20045;-67
2021/01/25 01:43:29;;;;;;;30.83;13.50;;;;;;;0.36;91.84;99522.31;5034712;28;20052;-67
2021/01/25 01:45:54;;;;;;;33.23;13.07;;;;;;;0.36;91.78;99520.53;5034187;28;20146;-67
2021/01/25 01:48:21;;;;;;;37.13;14.63;;;;;;;0.35;91.61;99524.13;5034596;28;20092;-67
2021/01/25 01:50:46;;;;;;;32.08;13.65;;;;;;;0.33;91.55;99520.78;5016970;28;20033;-67
2021/01/25 01:53:12;;;;;;;34.23;12.23;;;;;;;0.37;91.81;99518.72;5017099;28;20030;-67
2021/01/25 01:55:37;;;;;;;34.23;12.60;;;;;;;0.38;91.38;99518.59;5034243;28;20037;-68
2021/01/25 01:58:03;;;;;;;34.33;14.60;;;;;;;0.35;91.24;99518.03;5033397;28;20363;-67
2021/01/25 02:00:28;;;;;;;36.33;13.45;;;;;;;0.32;91.27;99524.34;5034241;28;20040;-67
2021/01/25 02:02:54;;;;;;;32.27;13.10;;;;;;;0.36;91.41;99522.31;5033508;28;20044;-67
2021/01/25 02:05:19;;;;;;;31.77;14.00;;;;;;;0.37;91.22;99531.84;5034357;28;20044;-67
2021/01/25 02:07:49;;;;;;;39.35;14.98;;;;;;;0.38;91.23;99529.13;5033903;28;20037;-67
2021/01/25 02:10:16;;;;;;;33.55;13.40;;;;;;;0.37;91.25;99531.84;5016534;28;20041;-67
2021/01/25 02:12:43;;;;;;;30.38;12.05;;;;;;;0.35;91.05;99531.16;5033176;28;20033;-67
2021/01/25 02:15:09;;;;;;;33.45;12.90;;;;;;;0.34;91.13;99527.69;5033964;28;20108;-67
2021/01/25 02:17:35;;;;;;;36.90;14.45;;;;;;;0.21;91.14;99534.91;5032810;28;20468;-67
2021/01/25 02:20:22;;;;;;;38.33;13.52;;;;;;;0.14;91.31;99531.13;5034007;28;20068;-67
2021/01/25 02:23:01;;;;;;;41.63;13.70;;;;;;;0.23;91.33;99530.38;5033923;28;20041;-70
2021/01/25 02:25:56;;;;;;;34.95;13.85;;;;;;;0.20;91.30;99530.63;5016285;28;20463;-70
2021/01/25 02:28:21;;;;;;;29.38;11.30;;;;;;;0.14;91.30;99528.50;5011977;28;20053;-70
2021/01/25 02:30:47;;;;;;;39.70;14.83;;;;;;;0.16;91.01;99523.97;5032796;28;20049;-70
2021/01/25 02:33:13;;;;;;;40.55;15.65;;;;;;;0.18;91.21;99533.38;5032897;28;20096;-69
2021/01/25 02:35:39;;;;;;;43.67;14.93;;;;;;;0.24;91.30;99537.31;5032696;28;20033;-70
2021/01/25 02:38:09;;;;;;;35.55;14.35;;;;;;;0.26;91.23;99545.88;5032534;28;20141;-70
2021/01/25 02:40:36;;;;;;;43.63;14.90;;;;;;;0.27;91.17;99542.28;5032750;28;20056;-67
2021/01/25 02:43:03;;;;;;;34.42;14.55;;;;;;;0.33;91.25;99547.03;5033559;28;20047;-67
2021/01/25 02:45:28;;;;;;;36.90;14.98;;;;;;;0.36;91.31;99546.78;5016055;28;20359;-67
2021/01/25 02:47:54;;;;;;;38.15;13.13;;;;;;;0.30;91.18;99539.41;5033205;28;20084;-68
2021/01/25 02:50:19;;;;;;;42.88;16.20;;;;;;;0.33;91.27;99549.69;5033474;28;20124;-67
2021/01/25 02:52:45;;;;;;;38.17;16.33;;;;;;;0.36;91.15;99544.16;5033225;28;20158;-67
2021/01/25 02:55:10;;;;;;;35.23;14.27;;;;;;;0.38;91.26;99546.66;5032392;28;20360;-67
2021/01/25 02:57:37;;;;;;;36.00;14.48;;;;;;;0.41;91.33;99555.09;5032968;28;20391;-67
2021/01/25 03:00:06;;;;;;;38.50;15.40;;;;;;;0.44;91.22;99551.41;5033264;28;20041;-67
2021/01/25 03:02:32;;;;;;;40.22;15.60;;;;;;;0.33;91.00;99548.84;5032347;28;20112;-67
2021/01/25 03:04:59;;;;;;;;;;;;;;;0.36;91.14;99546.78;5032590;28;20383;-68
2021/01/25 03:07:24;;;;;;;42.83;16.10;;;;;;;0.37;91.07;99551.06;5031852;28;19921;-68
2021/01/25 03:09:49;;;;;;;43.53;14.63;;;;;;;0.38;91.19;99547.50;5032972;28;20053;-68
2021/01/25 03:12:15;;;;;;;42.87;16.17;;;;;;;0.37;91.22;99558.94;5032103;28;20037;-68
2021/01/25 03:14:45;;;;;;;44.35;17.17;;;;;;;0.40;90.94;99553.47;5032095;28;20049;-68
2021/01/25 03:17:11;;;;;;;47.58;16.90;;;;;;;0.44;90.85;99558.44;5031701;28;20044;-68
2021/01/25 03:19:36;;;;;;;45.40;16.35;;;;;;;0.38;90.69;99560.63;5031871;28;20379;-68
2021/01/25 03:22:01;;;;;;;48.50;15.57;;;;;;;0.40;90.54;99550.00;5032760;28;20056;-68
2021/01/25 03:24:27;;;;;;;44.73;16.47;;;;;;;0.30;90.44;99552.53;5032818;28;20033;-68
2021/01/25 03:26:52;;;;;;;53.90;16.27;;;;;;;0.33;90.52;99556.72;5031422;28;20437;-69
2021/01/25 03:29:17;;;;;;;44.83;15.53;;;;;;;0.30;90.82;99555.16;5031822;28;20462;-68
2021/01/25 03:31:43;;;;;;;28.07;13.07;;;;;;;0.36;90.82;99559.09;5032702;28;20041;-68
2021/01/25 03:34:08;;;;;;;30.27;11.40;;;;;;;0.38;90.55;99554.53;5031581;28;20045;-69
2021/01/25 03:36:35;;;;;;;28.77;10.40;;;;;;;0.39;91.01;99551.78;5032301;28;20043;-69
2021/01/25 03:39:00;;;;;;;23.00;9.93;;;;;;;0.36;90.63;99551.22;5031581;28;20477;-68
2021/01/25 03:41:26;;;;;;;15.60;7.30;;;;;;;0.30;90.62;99560.41;5031679;28;20042;-68
2021/01/25 03:43:51;;;;;;;17.58;7.22;;;;;;;0.25;90.79;99562.56;5032409;28;20041;-68
2021/01/25 03:46:17;;;;;;;20.13;8.20;;;;;;;0.25;90.84;99565.19;5032112;28;20129;-68
2021/01/25 03:48:42;;;;;;;19.63;7.90;;;;;;;0.28;91.03;99564.97;5031355;28;20095;-68
2021/01/25 03:51:07;;;;;;;26.00;9.03;;;;;;;0.32;90.99;99563.75;5032282;28;20737;-69
2021/01/25 03:53:33;;;;;;;44.37;12.57;;;;;;;0.27;90.90;99570.34;5031267;28;20033;-68
2021/01/25 03:55:59;;;;;;;31.50;12.90;;;;;;;0.30;91.19;99564.81;5032017;28;20061;-69
2021/01/25 03:58:24;;;;;;;29.25;10.60;;;;;;;0.36;91.21;99569.59;5031030;28;20136;-69
2021/01/25 04:00:49;;;;;;;34.28;10.75;;;;;;;0.38;91.09;99570.31;5031152;28;20051;-68
2021/01/25 04:03:15;;;;;;;41.93;14.53;;;;;;;0.36;91.08;99575.66;5032064;28;20052;-68
2021/01/25 04:05:40;;;;;;;46.40;15.50;;;;;;;0.25;91.28;99575.72;5031617;28;20041;-68
2021/01/25 04:08:05;;;;;;;46.47;14.53;;;;;;;0.30;91.53;99577.97;5031814;28;20056;-69
2021/01/25 04:10:31;;;;;;;63.43;17.83;;;;;;;0.31;91.34;99575.22;5014535;28;20370;-68
2021/01/25 04:12:56;;;;;;;54.40;16.43;;;;;;;0.31;91.28;99564.72;5031047;28;20096;-68
2021/01/25 04:15:21;;;;;;;41.97;14.10;;;;;;;0.31;91.40;99572.59;5031842;28;20037;-68
2021/01/25 04:17:47;;;;;;;41.33;13.50;;;;;;;0.33;91.48;99578.56;5030765;28;20041;-68
2021/01/25 04:20:12;;;;;;;44.97;16.30;;;;;;;0.28;91.22;99570.22;5031691;28;20073;-69
2021/01/25 04:22:38;;;;;;;56.00;15.40;;;;;;;0.31;91.48;99571.75;5031754;28;20148;-68
2021/01/25 04:25:05;;;;;;;54.27;15.63;;;;;;;0.24;91.63;99584.56;5031669;28;20033;-68
2021/01/25 04:27:31;;;;;;;44.28;14.07;;;;;;;0.23;91.54;99572.38;5031302;28;20069;-69
2021/01/25 04:29:56;;;;;;;53.60;18.80;;;;;;;0.17;91.58;99588.63;5014205;28;20463;-68
2021/01/25 04:32:22;;;;;;;36.93;12.13;;;;;;;0.09;91.72;99585.78;5031659;28;20072;-68
2021/01/25 04:34:48;;;;;;;41.92;15.35;;;;;;;0.11;92.01;99584.69;5030414;28;20076;-68
2021/01/25 04:37:13;;;;;;;44.90;14.65;;;;;;;0.18;91.91;99587.66;5030285;28;20044;-68
2021/01/25 04:39:38;;;;;;;42.73;12.60;;;;;;;0.15;91.80;99588.75;5030542;28;20530;-68
2021/01/25 04:42:04;;;;;;;59.00;16.53;;;;;;;0.14;91.65;99586.25;5030495;28;20037;-68
2021/01/25 04:44:31;;;;;;;42.75;14.52;;;;;;;0.13;91.66;99589.84;5030443;28;20065;-68
2021/01/25 04:47:00;;;;;;;40.45;14.65;;;;;;;0.12;91.40;99594.25;5031031;28;20107;-68
2021/01/25 04:49:26;;;;;;;44.13;15.25;;;;;;;0.07;91.48;99593.81;5030111;28;20119;-68
2021/01/25 04:51:53;;;;;;;42.15;17.23;;;;;;;0.14;91.34;99591.47;5030349;28;20120;-69
2021/01/25 04:54:18;;;;;;;40.03;14.60;;;;;;;0.19;91.16;99591.97;5030269;28;20041;-68
2021/01/25 04:56:44;;;;;;;43.33;14.70;;;;;;;0.06;90.90;99592.13;5031034;28;20453;-68
2021/01/25 04:59:09;;;;;;;43.58;14.07;;;;;;;0.09;91.08;99596.28;5029929;28;20064;-68
2021/01/25 05:01:35;;;;;;;43.22;14.27;;;;;;;0.04;91.12;99598.44;5031249;28;20363;-71
2021/01/25 05:04:00;;;;;;;37.27;12.53;;;;;;;0.05;91.03;99600.97;5031039;28;20080;-69
2021/01/25 05:06:25;;;;;;;32.50;12.53;;;;;;;-0.01;91.06;99606.69;5030788;28;20033;-68
2021/01/25 05:08:51;;;;;;;41.83;14.70;;;;;;;-0.05;91.19;99613.97;5030791;28;20344;-68
2021/01/25 05:11:18;;;;;;;38.53;15.37;;;;;;;-0.06;91.31;99608.84;5029770;28;20072;-69
2021/01/25 05:13:44;;;;;;;34.28;13.60;;;;;;;-0.02;91.22;99613.72;5030615;28;20038;-68
2021/01/25 05:16:20;;;;;;;39.40;14.82;;;;;;;0.04;91.36;99625.50;5012942;28;20124;-68
2021/01/25 05:18:46;;;;;;;;;;;;;;;0.01;91.05;99619.69;5031130;28;20060;-69
2021/01/25 05:21:12;;;;;;;32.72;13.90;;;;;;;-0.08;91.04;99619.47;5030496;28;20338;-68
2021/01/25 05:23:41;;;;;;;32.60;13.45;;;;;;;-0.13;91.01;99615.53;5013156;28;20034;-68
2021/01/25 05:26:10;;;;;;;38.58;11.43;;;;;;;-0.26;90.97;99620.91;5029180;28;20436;-68
2021/01/25 05:28:43;;;;;;;31.73;13.75;;;;;;;-0.23;91.11;99618.88;5030384;28;20052;-68
2021/01/25 05:31:22;;;;;;;35.88;12.95;;;;;;;-0.16;91.26;99616.63;5030338;28;20437;-71
2021/01/25 05:33:48;;;;;;;34.30;12.63;;;;;;;-0.15;91.17;99620.91;5029527;28;20041;-71
2021/01/25 05:36:21;;;;;;;;;;;;;;;-0.12;91.17;99619.81;5029389;28;20049;-68
2021/01/25 05:38:48;;;;;;;39.08;13.98;;;;;;;-0.15;91.40;99623.53;5029498;28;20019;-68
2021/01/25 05:41:15;;;;;;;35.53;12.63;;;;;;;-0.13;91.26;99632.13;5012938;28;20045;-69
2021/01/25 05:43:40;;;;;;;42.30;13.93;;;;;;;-0.12;91.43;99625.91;5030268;28;20068;-68
2021/01/25 05:46:11;;;;;;;39.33;14.45;;;;;;;-0.14;91.20;99626.97;5029093;28;20033;-69
2021/01/25 05:48:37;;;;;;;37.08;13.70;;;;;;;-0.17;91.39;99633.31;5029460;28;20041;-68
2021/01/25 05:51:14;;;;;;;30.10;10.23;;;;;;;-0.12;91.53;99628.53;5029356;28;20366;-68
2021/01/25 05:53:42;;;;;;;36.78;11.40;;;;;;;-0.15;91.47;99631.41;5029414;28;20052;-69
2021/01/25 05:56:09;;;;;;;28.70;9.98;;;;;;;-0.19;91.54;99629.13;5029890;28;20498;-68
2021/01/25 05:58:34;;;;;;;27.75;11.60;;;;;;;-0.23;91.53;99631.19;5012837;28;20513;-68
2021/01/25 06:01:04;;;;;;;27.27;11.27;;;;;;;-0.23;91.27;99633.81;5012741;28;20040;-68
2021/01/25 06:03:36;;;;;;;20.88;8.18;;;;;;;-0.19;91.37;99626.50;5033524;28;20346;-68
2021/01/25 06:06:08;;;;;;;24.40;8.68;;;;;;;-0.12;91.41;99639.00;5015953;28;20060;-68
2021/01/25 06:08:48;;;;;;;27.48;8.23;;;;;;;-0.12;91.31;99646.06;5032556;28;20037;-68
2021/01/25 06:11:16;;;;;;;20.25;8.57;;;;;;;-0.10;91.22;99641.53;5033565;28;20091;-68
2021/01/25 06:13:51;;;;;;;18.98;7.35;;;;;;;-0.14;91.12;99643.56;5033651;28;20124;-69
2021/01/25 06:16:20;;;;;;;21.77;7.57;;;;;;;-0.16;91.13;99648.09;5033298;28;20358;-68
2021/01/25 06:18:46;;;;;;;20.25;7.95;;;;;;;-0.11;91.28;99655.63;5032523;28;20340;-68
2021/01/25 06:21:14;;;;;;;21.85;8.45;;;;;;;-0.07;91.06;99654.41;5033475;28;20087;-68
2021/01/25 06:23:41;;;;;;;16.17;7.32;;;;;;;-0.07;91.08;99644.75;5032731;28;20092;-68
2021/01/25 06:26:06;;;;;;;17.70;6.57;;;;;;;0.01;91.13;99661.69;5015673;28;20478;-68
2021/01/25 06:28:32;;;;;;;26.43;8.70;;;;;;;-0.02;91.00;99671.47;5032451;28;20076;-68
2021/01/25 06:30:59;;;;;;;16.60;7.38;;;;;;;0.01;90.99;99661.69;5016210;28;20120;-69
2021/01/25 06:33:24;;;;;;;16.63;8.00;;;;;;;0.05;90.99;99669.19;5033035;28;20048;-68
2021/01/25 06:35:51;;;;;;;20.63;7.20;;;;;;;0.03;90.98;99665.84;5033025;28;20033;-68
2021/01/25 06:38:18;;;;;;;13.63;7.10;;;;;;;0.06;90.99;99675.28;5032117;28;20091;-69
2021/01/25 06:40:46;;;;;;;21.58;7.80;;;;;;;0.84;92.70;99677.69;5032193;28;20455;-68
2021/01/25 06:43:14;;;;;;;13.25;6.00;;;;;;;1.55;92.42;99679.66;5033010;28;20033;-68
2021/01/25 06:45:40;;;;;;;14.48;6.07;;;;;;;1.00;89.52;99665.88;5031973;28;20152;-69
2021/01/25 06:48:07;;;;;;;12.57;5.70;;;;;;;0.59;88.64;99683.28;5031694;28;20033;-69
2021/01/25 06:50:35;;;;;;;16.88;6.82;;;;;;;0.49;89.19;99677.06;5032038;28;20438;-68
2021/01/25 06:53:03;;;;;;;19.10;7.00;;;;;;;0.39;89.34;99682.25;5031976;28;20037;-68
2021/01/25 06:55:33;;;;;;;13.80;6.20;;;;;;;0.24;89.75;99683.47;5031830;28;20099;-68
2021/01/25 06:58:05;;;;;;;18.83;6.88;;;;;;;0.24;90.03;99686.09;5031744;28;20448;-68
2021/01/25 07:00:33;;;;;;;16.15;7.55;;;;;;;0.26;90.04;99686.78;5031815;28;20099;-68
2021/01/25 07:03:02;;;;;;;14.40;5.60;;;;;;;0.22;90.07;99694.09;5032640;28;20048;-69
2021/01/25 07:05:32;;;;;;;16.60;6.95;;;;;;;0.24;90.16;99689.56;5031769;28;20371;-69
2021/01/25 07:08:24;;;;;;;20.05;7.35;;;;;;;0.23;90.12;99690.50;5032319;28;20033;-69
2021/01/25 07:11:00;;;;;;;14.40;6.88;;;;;;;0.25;90.26;99695.63;5033075;28;20300;-69
2021/01/25 07:13:33;;;;;;;17.27;6.55;;;;;;;0.28;90.01;99701.50;5030416;28;20104;-69
2021/01/25 07:15:59;;;;;;;14.52;6.43;;;;;;;0.30;89.95;99710.06;5031560;28;20052;-69
2021/01/25 07:18:26;;;;;;;17.73;7.63;;;;;;;0.24;90.05;99713.19;5032439;28;20034;-69
2021/01/25 07:20:54;;;;;;;18.98;8.95;;;;;;;0.22;90.05;99714.28;5032348;28;20033;-69
2021/01/25 07:23:21;;;;;;;18.15;6.75;;;;;;;0.23;90.40;99714.13;5032248;28;20108;-69
2021/01/25 07:26:00;;;;;;;18.33;7.03;;;;;;;0.19;90.38;99721.44;5032071;28;20037;-69
2021/01/25 07:28:29;;;;;;;16.42;7.30;;;;;;;0.25;90.46;99722.72;5032217;28;20100;-69
2021/01/25 07:30:54;;;;;;;18.20;7.50;;;;;;;0.28;90.47;99724.25;5031236;28;20036;-69
2021/01/25 07:33:21;;;;;;;16.93;6.70;;;;;;;0.18;90.44;99721.53;5015039;28;20041;-69
2021/01/25 07:35:47;;;;;;;13.35;6.82;;;;;;;0.08;90.17;99725.84;5031528;28;20033;-68
2021/01/25 07:38:12;;;;;;;;;;;;;;;0.02;89.92;99716.66;5015351;28;20525;-68
2021/01/25 07:40:38;;;;;;;12.45;5.15;;;;;;;-0.04;90.06;99723.22;5031638;28;19940;-68
2021/01/25 07:43:05;;;;;;;15.43;6.18;;;;;;;-0.14;90.02;99730.16;5032435;28;20517;-68
2021/01/25 07:45:31;;;;;;;14.88;6.20;;;;;;;-0.18;90.30;99726.09;5032284;28;20033;-67
2021/01/25 07:47:57;;;;;;;19.58;7.80;;;;;;;-0.20;90.35;99728.00;5031132;28;20049;-67
2021/01/25 07:50:23;;;;;;;15.85;6.43;;;;;;;-0.22;90.38;99728.09;5032298;28;20052;-67
2021/01/25 07:53:03;;;;;;;16.17;6.17;;;;;;;-0.29;90.41;99733.94;5032732;28;20041;-68
2021/01/25 07:55:28;;;;;;;12.98;5.60;;;;;;;-0.18;90.55;99736.59;5014564;28;20042;-67
2021/01/25 07:58:05;;;;;;;13.07;5.40;;;;;;;-0.16;90.72;99736.47;5031110;28;20030;-67
2021/01/25 08:00:30;;;;;;;16.20;5.82;;;;;;;-0.11;90.80;99743.03;5031148;28;20033;-67
2021/01/25 08:03:14;;;;;;;10.73;5.27;;;;;;;0.08;90.67;99741.59;5032153;28;20188;-67
2021/01/25 08:05:40;;;;;;;13.40;5.50;;;;;;;0.23;90.48;99750.06;5031678;28;20092;-67
2021/01/25 08:08:10;;;;;;;8.73;4.50;;;;;;;0.25;90.28;99745.53;5029677;28;20100;-67
2021/01/25 08:10:37;;;;;;;10.50;5.18;;;;;;;0.19;89.94;99752.94;5030718;28;20371;-68
2021/01/25 08:13:13;;;;;;;14.65;5.00;;;;;;;0.26;89.95;99757.69;5031778;28;20033;-67
2021/01/25 08:15:39;;;;;;;12.02;5.47;;;;;;;0.17;89.90;99761.88;5030171;28;20176;-68
2021/01/25 08:18:07;;;;;;;14.43;6.45;;;;;;;0.18;89.85;99753.88;5013736;28;20064;-68
2021/01/25 08:20:36;;;;;;;18.23;7.03;;;;;;;0.23;89.94;99764.00;5030181;28;20036;-68
2021/01/25 08:23:05;;;;;;;20.80;9.00;;;;;;;0.25;90.22;99762.09;5031295;28;20029;-68
2021/01/25 08:25:30;;;;;;;17.98;7.47;;;;;;;0.27;90.19;99762.81;5030635;28;20095;-68
2021/01/25 08:28:06;;;;;;;19.25;8.93;;;;;;;0.41;90.11;99759.09;5013235;28;20041;-68
2021/01/25 08:30:40;;;;;;;22.88;9.45;;;;;;;0.43;89.84;99766.88;5030913;28;20033;-68
2021/01/25 08:33:08;;;;;;;25.38;9.13;;;;;;;0.31;89.85;99768.69;5031120;28;20037;-69
2021/01/25 08:35:33;;;;;;;21.42;8.57;;;;;;;0.32;90.05;99776.41;5030838;28;20034;-69
2021/01/25 08:38:30;;;;;;;23.70;8.97;;;;;;;0.28;89.89;99779.41;5013589;28;20151;-69
2021/01/25 08:40:58;;;;;;;22.52;9.35;;;;;;;0.24;89.96;99778.81;5030546;28;20041;-69
2021/01/25 08:43:32;;;;;;;22.95;9.45;;;;;;;0.23;89.99;99782.38;5030846;28;20041;-69
2021/01/25 08:46:11;;;;;;;23.15;10.18;;;;;;;0.28;90.07;99780.25;5030642;28;20047;-69
2021/01/25 08:48:36;;;;;;;21.70;9.20;;;;;;;0.38;89.87;99783.81;5013415;28;20046;-69
2021/01/25 08:51:14;;;;;;;23.50;10.20;;;;;;;0.38;89.68;99788.25;5029662;28;20041;-69
2021/01/25 08:53:39;;;;;;;20.13;8.98;;;;;;;0.30;89.75;99791.44;5030791;28;20060;-69
2021/01/25 08:56:18;;;;;;;29.33;11.77;;;;;;;0.30;89.96;99799.31;5029539;28;20471;-68
2021/01/25 08:58:44;;;;;;;30.35;10.32;;;;;;;0.35;90.01;99796.34;5013368;28;20415;-68
2021/01/25 09:01:22;;;;;;;29.08;11.23;;;;;;;0.35;89.95;99802.44;5030637;28;20045;-68
2021/01/25 09:03:48;;;;;;;37.20;11.75;;;;;;;0.31;90.00;99800.19;5030021;28;20107;-68
2021/01/25 09:06:13;;;;;;;34.63;13.05;;;;;;;0.28;90.11;99805.66;5029395;28;20037;-68
2021/01/25 09:08:39;;;;;;;33.93;11.83;;;;;;;0.17;90.21;99807.34;5029186;28;20115;-68
2021/01/25 09:11:06;;;;;;;31.75;11.77;;;;;;;0.22;90.47;99817.47;5030524;28;20116;-67
2021/01/25 09:13:32;;;;;;;31.80;11.98;;;;;;;0.18;90.48;99816.88;5029618;28;20111;-68
2021/01/25 09:15:58;;;;;;;33.67;13.77;;;;;;;0.11;90.38;99820.91;5030048;28;20036;-67
2021/01/25 09:18:23;;;;;;;36.47;12.23;;;;;;;0.09;90.39;99814.13;5029568;28;20382;-67
2021/01/25 09:20:48;;;;;;;31.93;12.90;;;;;;;0.11;90.49;99815.66;5030383;28;20447;-67
2021/01/25 09:23:17;;;;;;;30.83;11.47;;;;;;;0.15;90.70;99826.78;5029500;28;20132;-67
2021/01/25 09:25:42;;;;;;;25.50;11.00;;;;;;;0.13;90.59;99833.94;5030239;28;20037;-67
2021/01/25 09:28:08;;;;;;;35.23;11.30;;;;;;;0.14;90.65;99832.97;5030198;28;20110;-67
2021/01/25 09:30:33;;;;;;;25.20;9.27;;;;;;;0.20;90.62;99837.75;5030234;28;20063;-67
2021/01/25 09:32:59;;;;;;;24.33;8.57;;;;;;;0.16;90.53;99833.69;5029604;28;20141;-67
2021/01/25 09:35:26;;;;;;;27.20;9.52;;;;;;;0.08;90.18;99841.34;5013012;28;20092;-67
2021/01/25 09:37:51;;;;;;;24.73;8.98;;;;;;;-0.04;90.21;99840.47;5031800;28;20128;-67
2021/01/25 09:40:17;;;;;;;27.43;9.07;;;;;;;-0.11;90.51;99847.97;5033381;28;20114;-67
2021/01/25 09:42:42;;;;;;;29.60;10.53;;;;;;;-0.14;90.70;99852.59;5033155;28;20029;-67
2021/01/25 09:45:10;;;;;;;30.38;10.55;;;;;;;-0.11;90.78;99852.41;5033169;28;20474;-67
2021/01/25 09:47:35;;;;;;;39.80;11.15;;;;;;;-0.20;90.81;99850.47;5032683;28;20042;-67
2021/01/25 09:50:01;;;;;;;24.23;9.83;;;;;;;-0.15;90.94;99862.28;5016644;28;20037;-67
2021/01/25 09:52:26;;;;;;;24.27;9.43;;;;;;;-0.11;90.98;99855.03;5033035;28;20029;-67
2021/01/25 09:54:51;;;;;;;34.13;13.07;;;;;;;-0.07;90.64;99853.81;5033022;28;20351;-67
2021/01/25 09:57:17;;;;;;;34.13;12.43;;;;;;;0.03;91.07;99864.47;5032648;28;20102;-67
2021/01/25 09:59:42;;;;;;;33.53;12.13;;;;;;;0.09;91.25;99866.63;5032707;28;20029;-67
2021/01/25 10:02:07;;;;;;;29.17;10.63;;;;;;;0.18;91.02;99868.53;5033888;28;20177;-67
2021/01/25 10:04:33;;;;;;;30.43;11.67;;;;;;;0.36;91.14;99875.00;5032860;28;20387;-67
2021/01/25 10:06:58;;;;;;;26.93;10.30;;;;;;;0.47;91.03;99878.59;5032573;28;20608;-67
2021/01/25 10:09:23;;;;;;;32.43;10.33;;;;;;;0.49;90.53;99874.91;5032681;28;20103;-67
2021/01/25 10:11:49;;;;;;;29.10;11.00;;;;;;;0.50;90.38;99873.13;5032687;28;20052;-67
2021/01/25 10:14:14;;;;;;;30.35;12.60;;;;;;;0.56;90.38;99880.50;5016133;28;20052;-67
2021/01/25 10:16:40;;;;;;;28.80;10.13;;;;;;;0.66;90.32;99883.25;5033163;28;20029;-67
2021/01/25 10:19:05;;;;;;;25.93;10.10;;;;;;;0.76;90.03;99879.78;5016028;28;20041;-67
2021/01/25 10:21:30;;;;;;;26.40;10.67;;;;;;;0.98;89.60;99881.56;5016121;28;20033;-67
2021/01/25 10:23:56;;;;;;;25.27;9.80;;;;;;;1.04;89.31;99882.84;5032497;28;20025;-67
2021/01/25 10:26:21;;;;;;;20.33;9.70;;;;;;;0.92;89.08;99886.47;5033148;28;20041;-67
2021/01/25 10:28:48;;;;;;;21.13;8.82;;;;;;;0.78;89.17;99883.13;5032212;28;20374;-67
2021/01/25 10:31:14;;;;;;;18.92;8.93;;;;;;;0.68;89.36;99884.81;5033305;28;20395;-67
2021/01/25 10:33:40;;;;;;;21.15;8.70;;;;;;;0.76;89.48;99885.03;5033260;28;20033;-67
2021/01/25 10:36:05;;;;;;;21.73;9.53;;;;;;;0.83;89.20;99880.97;5015732;28;20375;-67
2021/01/25 10:38:30;;;;;;;21.07;9.40;;;;;;;0.89;89.04;99884.06;5032139;28;20283;-67
2021/01/25 10:40:56;;;;;;;20.80;9.63;;;;;;;0.92;88.75;99883.84;5032192;28;20283;-67
2021/01/25 10:43:21;;;;;;;23.03;8.60;;;;;;;0.90;88.60;99891.00;5015553;28;20086;-67
2021/01/25 10:45:47;;;;;;;23.77;8.37;;;;;;;0.94;88.67;99897.69;5032801;28;20106;-67
2021/01/25 10:48:12;;;;;;;21.27;8.48;;;;;;;0.99;88.90;99900.78;5015245;28;20490;-67
2021/01/25 10:50:37;;;;;;;14.93;7.03;;;;;;;1.10;88.57;99903.41;5015389;28;20033;-66
2021/01/25 10:53:03;;;;;;;13.97;6.00;;;;;;;1.12;88.07;99905.91;5032065;28;20383;-66
2021/01/25 10:55:28;;;;;;;14.60;6.73;;;;;;;1.14;87.58;99912.69;5015369;28;20037;-67
2021/01/25 10:57:54;;;;;;;12.60;8.07;;;;;;;1.14;87.46;99909.25;5031739;28;20056;-67
2021/01/25 11:00:21;;;;;;;11.33;5.87;;;;;;;1.03;87.24;99913.56;5015230;28;20378;-66
2021/01/25 11:02:47;;;;;;;17.60;6.97;;;;;;;1.16;87.54;99904.69;5031936;28;20284;-66
2021/01/25 11:05:16;;;;;;;13.52;5.50;;;;;;;1.13;87.34;99908.41;5031730;28;20038;-66
2021/01/25 11:07:42;;;;;;;12.82;5.90;;;;;;;1.25;87.34;99912.69;5032392;28;20026;-66
2021/01/25 11:10:11;;;;;;;11.95;5.10;;;;;;;1.16;86.41;99917.84;5032468;28;20041;-66
2021/01/25 11:12:37;;;;;;;11.93;5.22;;;;;;;1.16;87.05;99923.09;5032401;28;20120;-66
2021/01/25 11:15:05;;;;;;;11.17;5.37;;;;;;;1.14;87.11;99925.00;5015075;28;20043;-67
2021/01/25 11:17:30;;;;;;;19.60;7.85;;;;;;;1.13;87.09;99918.94;5031150;28;20513;-66
2021/01/25 11:19:55;;;;;;;14.13;6.33;;;;;;;1.14;86.69;99925.84;5031470;28;20045;-66
2021/01/25 11:22:20;;;;;;;12.33;5.57;;;;;;;1.16;87.16;99916.03;5032487;28;20184;-66
2021/01/25 11:24:46;;;;;;;11.50;5.23;;;;;;;1.18;86.41;99922.03;5014975;28;20048;-66
2021/01/25 11:27:11;;;;;;;9.80;5.47;;;;;;;1.18;86.56;99923.81;5029944;28;20037;-66
2021/01/25 11:29:37;;;;;;;16.57;6.60;;;;;;;1.13;86.61;99926.81;5031533;28;20111;-66